sensor_id;sensor_type;location;lat;lon;timestamp;P1;durP1;ratioP1;P2;durP2;ratioP2
4744;SDS011;2386;42.138;24.746;2023-11-19T00:00:28;1.63;;;1.53;;
4744;SDS011;2386;42.138;24.746;2023-11-19T00:02:54;1.67;;;1.57;;
4744;SDS011;2386;42.138;24.746;2023-11-19T00:05:19;2.07;;;1.87;;
4744;SDS011;2386;42.138;24.746;2023-11-19T00:07:45;1.33;;;1.33;;
4744;SDS011;2386;42.138;24.746;2023-11-19T00:10:10;1.90;;;1.73;;
4744;SDS011;2386;42.138;24.746;2023-11-19T00:12:43;1.93;;;1.50;;
4744;SDS011;2386;42.138;24.746;2023-11-19T00:15:10;1.67;;;1.57;;
4744;SDS011;2386;42.138;24.746;2023-11-19T00:17:39;2.83;;;1.80;;
4744;SDS011;2386;42.138;24.746;2023-11-19T00:20:10;1.30;;;1.30;;
4744;SDS011;2386;42.138;24.746;2023-11-19T00:22:46;1.90;;;1.80;;
4744;SDS011;2386;42.138;24.746;2023-11-19T00:25:13;1.67;;;1.57;;
4744;SDS011;2386;42.138;24.746;2023-11-19T00:27:38;1.60;;;1.50;;
4744;SDS011;2386;42.138;24.746;2023-11-19T00:30:05;1.60;;;1.53;;
4744;SDS011;2386;42.138;24.746;2023-11-19T00:32:34;1.37;;;1.30;;
4744;SDS011;2386;42.138;24.746;2023-11-19T00:34:59;1.60;;;1.60;;
4744;SDS011;2386;42.138;24.746;2023-11-19T00:37:25;1.40;;;1.40;;
4744;SDS011;2386;42.138;24.746;2023-11-19T00:39:50;1.60;;;1.50;;
4744;SDS011;2386;42.138;24.746;2023-11-19T00:42:17;1.53;;;1.43;;
4744;SDS011;2386;42.138;24.746;2023-11-19T00:44:42;1.70;;;1.60;;
4744;SDS011;2386;42.138;24.746;2023-11-19T00:47:08;1.57;;;1.47;;
4744;SDS011;2386;42.138;24.746;2023-11-19T00:49:33;1.10;;;1.10;;
4744;SDS011;2386;42.138;24.746;2023-11-19T00:51:59;2.30;;;1.30;;
4744;SDS011;2386;42.138;24.746;2023-11-19T00:54:24;2.10;;;2.00;;
4744;SDS011;2386;42.138;24.746;2023-11-19T00:56:54;1.57;;;1.50;;
4744;SDS011;2386;42.138;24.746;2023-11-19T00:59:20;1.60;;;1.50;;
4744;SDS011;2386;42.138;24.746;2023-11-19T01:01:45;1.67;;;1.60;;
4744;SDS011;2386;42.138;24.746;2023-11-19T01:04:13;2.60;;;1.70;;
4744;SDS011;2386;42.138;24.746;2023-11-19T01:06:38;2.30;;;1.47;;
4744;SDS011;2386;42.138;24.746;2023-11-19T01:09:04;2.63;;;1.73;;
4744;SDS011;2386;42.138;24.746;2023-11-19T01:11:29;1.40;;;1.40;;
4744;SDS011;2386;42.138;24.746;2023-11-19T01:13:55;1.50;;;1.50;;
4744;SDS011;2386;42.138;24.746;2023-11-19T01:16:20;1.73;;;1.63;;
4744;SDS011;2386;42.138;24.746;2023-11-19T01:18:49;3.90;;;1.47;;
4744;SDS011;2386;42.138;24.746;2023-11-19T01:21:15;1.80;;;1.70;;
4744;SDS011;2386;42.138;24.746;2023-11-19T01:23:41;1.50;;;1.40;;
4744;SDS011;2386;42.138;24.746;2023-11-19T01:26:09;1.40;;;1.40;;
4744;SDS011;2386;42.138;24.746;2023-11-19T01:28:36;1.40;;;1.40;;
4744;SDS011;2386;42.138;24.746;2023-11-19T01:31:02;1.77;;;1.67;;
4744;SDS011;2386;42.138;24.746;2023-11-19T01:33:28;1.40;;;1.40;;
4744;SDS011;2386;42.138;24.746;2023-11-19T01:35:54;1.43;;;1.43;;
4744;SDS011;2386;42.138;24.746;2023-11-19T01:38:19;1.60;;;1.57;;
4744;SDS011;2386;42.138;24.746;2023-11-19T01:40:44;1.80;;;1.70;;
4744;SDS011;2386;42.138;24.746;2023-11-19T01:43:10;1.87;;;1.77;;
4744;SDS011;2386;42.138;24.746;2023-11-19T01:45:36;1.80;;;1.70;;
4744;SDS011;2386;42.138;24.746;2023-11-19T01:48:03;1.77;;;1.67;;
4744;SDS011;2386;42.138;24.746;2023-11-19T01:50:29;1.80;;;1.70;;
4744;SDS011;2386;42.138;24.746;2023-11-19T01:52:56;1.60;;;1.50;;
4744;SDS011;2386;42.138;24.746;2023-11-19T01:55:25;1.40;;;1.40;;
4744;SDS011;2386;42.138;24.746;2023-11-19T01:57:53;2.00;;;1.90;;
4744;SDS011;2386;42.138;24.746;2023-11-19T02:00:24;2.00;;;1.90;;
4744;SDS011;2386;42.138;24.746;2023-11-19T02:02:50;1.63;;;1.63;;
4744;SDS011;2386;42.138;24.746;2023-11-19T02:05:17;1.90;;;1.80;;
4744;SDS011;2386;42.138;24.746;2023-11-19T02:07:42;2.03;;;1.60;;
4744;SDS011;2386;42.138;24.746;2023-11-19T02:10:08;1.53;;;1.43;;
4744;SDS011;2386;42.138;24.746;2023-11-19T02:12:38;1.60;;;1.50;;
4744;SDS011;2386;42.138;24.746;2023-11-19T02:15:08;1.70;;;1.60;;
4744;SDS011;2386;42.138;24.746;2023-11-19T02:17:34;1.50;;;1.40;;
4744;SDS011;2386;42.138;24.746;2023-11-19T02:20:02;1.93;;;1.80;;
4744;SDS011;2386;42.138;24.746;2023-11-19T02:22:36;1.50;;;1.40;;
4744;SDS011;2386;42.138;24.746;2023-11-19T02:25:04;1.80;;;1.70;;
4744;SDS011;2386;42.138;24.746;2023-11-19T02:30:33;1.90;;;1.80;;
4744;SDS011;2386;42.138;24.746;2023-11-19T02:32:59;1.90;;;1.80;;
4744;SDS011;2386;42.138;24.746;2023-11-19T02:35:28;2.93;;;1.60;;
4744;SDS011;2386;42.138;24.746;2023-11-19T02:37:56;1.90;;;1.80;;
4744;SDS011;2386;42.138;24.746;2023-11-19T02:40:23;3.10;;;2.00;;
4744;SDS011;2386;42.138;24.746;2023-11-19T02:42:54;1.87;;;1.77;;
4744;SDS011;2386;42.138;24.746;2023-11-19T02:45:24;2.10;;;1.70;;
4744;SDS011;2386;42.138;24.746;2023-11-19T02:47:53;1.77;;;1.67;;
4744;SDS011;2386;42.138;24.746;2023-11-19T02:50:20;2.13;;;2.03;;
4744;SDS011;2386;42.138;24.746;2023-11-19T02:52:50;2.00;;;1.90;;
4744;SDS011;2386;42.138;24.746;2023-11-19T02:55:17;1.87;;;1.87;;
4744;SDS011;2386;42.138;24.746;2023-11-19T02:57:43;2.00;;;1.90;;
4744;SDS011;2386;42.138;24.746;2023-11-19T03:00:16;2.20;;;2.10;;
4744;SDS011;2386;42.138;24.746;2023-11-19T03:02:44;2.30;;;2.10;;
4744;SDS011;2386;42.138;24.746;2023-11-19T03:05:14;2.10;;;2.00;;
4744;SDS011;2386;42.138;24.746;2023-11-19T03:07:41;2.50;;;2.30;;
4744;SDS011;2386;42.138;24.746;2023-11-19T03:10:08;2.00;;;1.90;;
4744;SDS011;2386;42.138;24.746;2023-11-19T03:12:37;2.20;;;2.10;;
4744;SDS011;2386;42.138;24.746;2023-11-19T03:15:02;2.37;;;2.27;;
4744;SDS011;2386;42.138;24.746;2023-11-19T03:17:28;1.87;;;1.77;;
4744;SDS011;2386;42.138;24.746;2023-11-19T03:19:53;2.10;;;2.00;;
4744;SDS011;2386;42.138;24.746;2023-11-19T03:22:19;2.10;;;2.00;;
4744;SDS011;2386;42.138;24.746;2023-11-19T03:24:45;4.00;;;2.30;;
4744;SDS011;2386;42.138;24.746;2023-11-19T03:27:11;2.83;;;2.63;;
4744;SDS011;2386;42.138;24.746;2023-11-19T03:29:36;2.00;;;1.90;;
4744;SDS011;2386;42.138;24.746;2023-11-19T03:32:03;3.53;;;1.90;;
4744;SDS011;2386;42.138;24.746;2023-11-19T03:34:29;2.37;;;2.23;;
4744;SDS011;2386;42.138;24.746;2023-11-19T03:36:54;2.27;;;2.10;;
4744;SDS011;2386;42.138;24.746;2023-11-19T03:39:20;3.30;;;2.33;;
4744;SDS011;2386;42.138;24.746;2023-11-19T03:41:49;2.40;;;2.30;;
4744;SDS011;2386;42.138;24.746;2023-11-19T03:44:15;2.30;;;2.20;;
4744;SDS011;2386;42.138;24.746;2023-11-19T03:46:40;2.83;;;2.63;;
4744;SDS011;2386;42.138;24.746;2023-11-19T03:49:06;5.50;;;2.40;;
4744;SDS011;2386;42.138;24.746;2023-11-19T03:51:32;2.20;;;2.10;;
4744;SDS011;2386;42.138;24.746;2023-11-19T03:53:57;2.30;;;2.20;;
4744;SDS011;2386;42.138;24.746;2023-11-19T03:56:24;2.03;;;1.93;;
4744;SDS011;2386;42.138;24.746;2023-11-19T03:58:49;2.20;;;2.10;;
4744;SDS011;2386;42.138;24.746;2023-11-19T04:01:14;2.47;;;2.33;;
4744;SDS011;2386;42.138;24.746;2023-11-19T04:03:40;2.27;;;2.17;;
4744;SDS011;2386;42.138;24.746;2023-11-19T04:06:06;1.90;;;1.90;;
4744;SDS011;2386;42.138;24.746;2023-11-19T04:08:31;2.47;;;2.37;;
4744;SDS011;2386;42.138;24.746;2023-11-19T04:10:57;2.40;;;2.30;;
4744;SDS011;2386;42.138;24.746;2023-11-19T04:13:22;2.73;;;2.53;;
4744;SDS011;2386;42.138;24.746;2023-11-19T04:15:49;2.50;;;2.40;;
4744;SDS011;2386;42.138;24.746;2023-11-19T04:18:15;2.90;;;2.13;;
4744;SDS011;2386;42.138;24.746;2023-11-19T04:20:41;2.50;;;2.40;;
4744;SDS011;2386;42.138;24.746;2023-11-19T04:23:07;3.23;;;2.07;;
4744;SDS011;2386;42.138;24.746;2023-11-19T04:25:33;1.90;;;1.80;;
4744;SDS011;2386;42.138;24.746;2023-11-19T04:28:00;10.33;;;1.80;;
4744;SDS011;2386;42.138;24.746;2023-11-19T04:30:25;2.20;;;2.10;;
4744;SDS011;2386;42.138;24.746;2023-11-19T04:32:51;2.10;;;2.00;;
4744;SDS011;2386;42.138;24.746;2023-11-19T04:35:16;1.67;;;1.60;;
4744;SDS011;2386;42.138;24.746;2023-11-19T04:37:42;2.10;;;2.00;;
4744;SDS011;2386;42.138;24.746;2023-11-19T04:40:07;2.17;;;2.07;;
4744;SDS011;2386;42.138;24.746;2023-11-19T04:42:33;2.40;;;2.20;;
4744;SDS011;2386;42.138;24.746;2023-11-19T04:44:58;2.30;;;2.20;;
4744;SDS011;2386;42.138;24.746;2023-11-19T04:47:24;2.30;;;2.20;;
4744;SDS011;2386;42.138;24.746;2023-11-19T04:49:49;2.30;;;2.20;;
4744;SDS011;2386;42.138;24.746;2023-11-19T04:52:14;3.90;;;2.40;;
4744;SDS011;2386;42.138;24.746;2023-11-19T04:54:43;2.50;;;2.30;;
4744;SDS011;2386;42.138;24.746;2023-11-19T04:57:09;2.60;;;2.40;;
4744;SDS011;2386;42.138;24.746;2023-11-19T04:59:36;2.67;;;2.47;;
4744;SDS011;2386;42.138;24.746;2023-11-19T05:02:01;2.50;;;2.30;;
4744;SDS011;2386;42.138;24.746;2023-11-19T05:04:27;2.93;;;2.63;;
4744;SDS011;2386;42.138;24.746;2023-11-19T05:06:52;2.40;;;2.30;;
4744;SDS011;2386;42.138;24.746;2023-11-19T05:09:18;2.50;;;2.40;;
4744;SDS011;2386;42.138;24.746;2023-11-19T05:11:44;2.40;;;2.20;;
4744;SDS011;2386;42.138;24.746;2023-11-19T05:14:09;2.10;;;2.00;;
4744;SDS011;2386;42.138;24.746;2023-11-19T05:16:34;2.63;;;1.90;;
4744;SDS011;2386;42.138;24.746;2023-11-19T05:19:00;2.30;;;2.10;;
4744;SDS011;2386;42.138;24.746;2023-11-19T05:21:25;2.40;;;2.30;;
4744;SDS011;2386;42.138;24.746;2023-11-19T05:23:51;2.20;;;2.10;;
4744;SDS011;2386;42.138;24.746;2023-11-19T05:26:17;2.37;;;2.27;;
4744;SDS011;2386;42.138;24.746;2023-11-19T05:28:46;2.47;;;2.30;;
4744;SDS011;2386;42.138;24.746;2023-11-19T05:31:12;2.53;;;2.43;;
4744;SDS011;2386;42.138;24.746;2023-11-19T05:33:37;2.83;;;2.63;;
4744;SDS011;2386;42.138;24.746;2023-11-19T05:36:03;2.20;;;2.10;;
4744;SDS011;2386;42.138;24.746;2023-11-19T05:38:30;2.27;;;2.17;;
4744;SDS011;2386;42.138;24.746;2023-11-19T05:40:55;2.53;;;2.40;;
4744;SDS011;2386;42.138;24.746;2023-11-19T05:43:20;2.80;;;2.60;;
4744;SDS011;2386;42.138;24.746;2023-11-19T05:45:46;2.13;;;2.03;;
4744;SDS011;2386;42.138;24.746;2023-11-19T05:48:11;4.73;;;2.83;;
4744;SDS011;2386;42.138;24.746;2023-11-19T05:50:37;2.23;;;2.13;;
4744;SDS011;2386;42.138;24.746;2023-11-19T05:53:03;2.67;;;2.57;;
4744;SDS011;2386;42.138;24.746;2023-11-19T05:55:33;2.60;;;2.40;;
4744;SDS011;2386;42.138;24.746;2023-11-19T05:57:59;6.43;;;2.17;;
4744;SDS011;2386;42.138;24.746;2023-11-19T06:00:25;2.97;;;2.77;;
4744;SDS011;2386;42.138;24.746;2023-11-19T06:02:52;1.90;;;1.80;;
4744;SDS011;2386;42.138;24.746;2023-11-19T06:05:17;2.43;;;2.23;;
4744;SDS011;2386;42.138;24.746;2023-11-19T06:07:43;2.60;;;2.40;;
4744;SDS011;2386;42.138;24.746;2023-11-19T06:10:09;2.20;;;2.10;;
4744;SDS011;2386;42.138;24.746;2023-11-19T06:12:35;2.40;;;2.20;;
4744;SDS011;2386;42.138;24.746;2023-11-19T06:15:06;2.37;;;2.27;;
4744;SDS011;2386;42.138;24.746;2023-11-19T06:17:33;2.60;;;2.40;;
4744;SDS011;2386;42.138;24.746;2023-11-19T06:19:59;2.77;;;2.57;;
4744;SDS011;2386;42.138;24.746;2023-11-19T06:22:24;2.20;;;2.10;;
4744;SDS011;2386;42.138;24.746;2023-11-19T06:24:50;2.70;;;2.50;;
4744;SDS011;2386;42.138;24.746;2023-11-19T06:27:15;2.33;;;2.13;;
4744;SDS011;2386;42.138;24.746;2023-11-19T06:29:40;2.80;;;2.60;;
4744;SDS011;2386;42.138;24.746;2023-11-19T06:32:06;4.00;;;2.60;;
4744;SDS011;2386;42.138;24.746;2023-11-19T06:34:33;2.80;;;2.50;;
4744;SDS011;2386;42.138;24.746;2023-11-19T06:36:58;2.50;;;2.30;;
4744;SDS011;2386;42.138;24.746;2023-11-19T06:39:24;2.60;;;2.40;;
4744;SDS011;2386;42.138;24.746;2023-11-19T06:41:49;2.73;;;2.53;;
4744;SDS011;2386;42.138;24.746;2023-11-19T06:44:15;2.53;;;2.30;;
4744;SDS011;2386;42.138;24.746;2023-11-19T06:46:40;2.37;;;2.27;;
4744;SDS011;2386;42.138;24.746;2023-11-19T06:49:06;2.57;;;2.47;;
4744;SDS011;2386;42.138;24.746;2023-11-19T06:51:34;3.30;;;2.07;;
4744;SDS011;2386;42.138;24.746;2023-11-19T06:53:59;2.30;;;2.10;;
4744;SDS011;2386;42.138;24.746;2023-11-19T06:56:25;3.63;;;2.33;;
4744;SDS011;2386;42.138;24.746;2023-11-19T06:58:51;2.80;;;2.60;;
4744;SDS011;2386;42.138;24.746;2023-11-19T07:01:18;2.53;;;2.37;;
4744;SDS011;2386;42.138;24.746;2023-11-19T07:03:44;3.00;;;2.80;;
4744;SDS011;2386;42.138;24.746;2023-11-19T07:06:13;2.70;;;2.50;;
4744;SDS011;2386;42.138;24.746;2023-11-19T07:08:39;2.60;;;2.40;;
4744;SDS011;2386;42.138;24.746;2023-11-19T07:11:07;2.83;;;2.63;;
4744;SDS011;2386;42.138;24.746;2023-11-19T07:13:34;2.60;;;2.40;;
4744;SDS011;2386;42.138;24.746;2023-11-19T07:16:00;2.20;;;2.10;;
4744;SDS011;2386;42.138;24.746;2023-11-19T07:18:25;2.80;;;2.60;;
4744;SDS011;2386;42.138;24.746;2023-11-19T07:20:51;4.77;;;2.40;;
4744;SDS011;2386;42.138;24.746;2023-11-19T07:23:16;2.80;;;2.60;;
4744;SDS011;2386;42.138;24.746;2023-11-19T07:25:42;5.27;;;2.90;;
4744;SDS011;2386;42.138;24.746;2023-11-19T07:28:11;2.87;;;2.67;;
4744;SDS011;2386;42.138;24.746;2023-11-19T07:30:37;2.80;;;2.60;;
4744;SDS011;2386;42.138;24.746;2023-11-19T07:33:03;2.60;;;2.50;;
4744;SDS011;2386;42.138;24.746;2023-11-19T07:35:29;2.37;;;2.27;;
4744;SDS011;2386;42.138;24.746;2023-11-19T07:37:55;11.50;;;2.47;;
4744;SDS011;2386;42.138;24.746;2023-11-19T07:40:22;3.07;;;2.77;;
4744;SDS011;2386;42.138;24.746;2023-11-19T07:42:48;2.20;;;2.07;;
4744;SDS011;2386;42.138;24.746;2023-11-19T07:45:13;2.20;;;2.10;;
4744;SDS011;2386;42.138;24.746;2023-11-19T07:47:39;2.57;;;2.20;;
4744;SDS011;2386;42.138;24.746;2023-11-19T07:50:04;2.70;;;2.07;;
4744;SDS011;2386;42.138;24.746;2023-11-19T07:52:30;2.23;;;2.03;;
4744;SDS011;2386;42.138;24.746;2023-11-19T07:54:55;2.23;;;2.00;;
4744;SDS011;2386;42.138;24.746;2023-11-19T07:57:21;1.90;;;1.80;;
4744;SDS011;2386;42.138;24.746;2023-11-19T07:59:48;2.50;;;2.30;;
4744;SDS011;2386;42.138;24.746;2023-11-19T08:02:14;2.30;;;2.10;;
4744;SDS011;2386;42.138;24.746;2023-11-19T08:04:39;1.97;;;1.70;;
4744;SDS011;2386;42.138;24.746;2023-11-19T08:07:09;2.50;;;2.40;;
4744;SDS011;2386;42.138;24.746;2023-11-19T08:09:35;2.17;;;2.07;;
4744;SDS011;2386;42.138;24.746;2023-11-19T08:12:00;2.47;;;2.27;;
4744;SDS011;2386;42.138;24.746;2023-11-19T08:14:26;2.57;;;2.43;;
4744;SDS011;2386;42.138;24.746;2023-11-19T08:16:51;2.00;;;1.90;;
4744;SDS011;2386;42.138;24.746;2023-11-19T08:19:17;1.90;;;1.80;;
4744;SDS011;2386;42.138;24.746;2023-11-19T08:21:42;2.40;;;2.30;;
4744;SDS011;2386;42.138;24.746;2023-11-19T08:24:07;2.27;;;2.10;;
4744;SDS011;2386;42.138;24.746;2023-11-19T08:26:33;2.20;;;2.10;;
4744;SDS011;2386;42.138;24.746;2023-11-19T08:28:58;2.50;;;1.60;;
4744;SDS011;2386;42.138;24.746;2023-11-19T08:31:24;2.47;;;2.37;;
4744;SDS011;2386;42.138;24.746;2023-11-19T08:33:50;2.07;;;1.93;;
4744;SDS011;2386;42.138;24.746;2023-11-19T08:36:16;2.20;;;2.10;;
4744;SDS011;2386;42.138;24.746;2023-11-19T08:38:44;2.20;;;2.10;;
4744;SDS011;2386;42.138;24.746;2023-11-19T08:41:10;2.67;;;2.47;;
4744;SDS011;2386;42.138;24.746;2023-11-19T08:43:35;2.97;;;2.77;;
4744;SDS011;2386;42.138;24.746;2023-11-19T08:46:00;2.70;;;2.50;;
4744;SDS011;2386;42.138;24.746;2023-11-19T08:48:26;2.20;;;2.10;;
4744;SDS011;2386;42.138;24.746;2023-11-19T08:50:51;2.60;;;2.40;;
4744;SDS011;2386;42.138;24.746;2023-11-19T08:53:16;2.80;;;2.60;;
4744;SDS011;2386;42.138;24.746;2023-11-19T08:55:42;3.53;;;2.63;;
4744;SDS011;2386;42.138;24.746;2023-11-19T08:58:08;2.27;;;2.17;;
4744;SDS011;2386;42.138;24.746;2023-11-19T09:00:33;5.80;;;2.60;;
4744;SDS011;2386;42.138;24.746;2023-11-19T09:02:58;2.50;;;2.27;;
4744;SDS011;2386;42.138;24.746;2023-11-19T09:05:24;2.30;;;2.20;;
4744;SDS011;2386;42.138;24.746;2023-11-19T09:07:49;2.80;;;2.70;;
4744;SDS011;2386;42.138;24.746;2023-11-19T09:10:15;2.17;;;2.07;;
4744;SDS011;2386;42.138;24.746;2023-11-19T09:12:41;2.70;;;2.30;;
4744;SDS011;2386;42.138;24.746;2023-11-19T09:15:06;5.83;;;2.40;;
4744;SDS011;2386;42.138;24.746;2023-11-19T09:17:32;2.40;;;2.30;;
4744;SDS011;2386;42.138;24.746;2023-11-19T09:19:57;2.77;;;2.57;;
4744;SDS011;2386;42.138;24.746;2023-11-19T09:22:23;3.50;;;2.50;;
4744;SDS011;2386;42.138;24.746;2023-11-19T09:24:48;2.50;;;2.40;;
4744;SDS011;2386;42.138;24.746;2023-11-19T09:27:14;2.10;;;1.90;;
4744;SDS011;2386;42.138;24.746;2023-11-19T09:29:39;2.10;;;2.00;;
4744;SDS011;2386;42.138;24.746;2023-11-19T09:32:04;2.70;;;2.50;;
4744;SDS011;2386;42.138;24.746;2023-11-19T09:34:31;2.30;;;2.20;;
4744;SDS011;2386;42.138;24.746;2023-11-19T09:36:56;2.10;;;2.00;;
4744;SDS011;2386;42.138;24.746;2023-11-19T09:39:22;2.00;;;1.90;;
4744;SDS011;2386;42.138;24.746;2023-11-19T09:41:47;2.50;;;2.30;;
4744;SDS011;2386;42.138;24.746;2023-11-19T09:44:14;1.90;;;1.80;;
4744;SDS011;2386;42.138;24.746;2023-11-19T09:46:43;1.80;;;1.70;;
4744;SDS011;2386;42.138;24.746;2023-11-19T09:49:08;2.33;;;2.23;;
4744;SDS011;2386;42.138;24.746;2023-11-19T09:51:35;2.20;;;2.10;;
4744;SDS011;2386;42.138;24.746;2023-11-19T09:54:01;4.83;;;2.27;;
4744;SDS011;2386;42.138;24.746;2023-11-19T09:56:27;2.93;;;2.10;;
4744;SDS011;2386;42.138;24.746;2023-11-19T09:58:54;2.20;;;2.10;;
4744;SDS011;2386;42.138;24.746;2023-11-19T10:01:20;2.43;;;2.30;;
4744;SDS011;2386;42.138;24.746;2023-11-19T10:03:46;2.50;;;2.40;;
4744;SDS011;2386;42.138;24.746;2023-11-19T10:06:12;2.93;;;2.63;;
4744;SDS011;2386;42.138;24.746;2023-11-19T10:08:41;3.13;;;2.50;;
4744;SDS011;2386;42.138;24.746;2023-11-19T10:11:07;2.53;;;2.33;;
4744;SDS011;2386;42.138;24.746;2023-11-19T10:13:36;2.20;;;2.07;;
4744;SDS011;2386;42.138;24.746;2023-11-19T10:16:14;4.10;;;2.20;;
4744;SDS011;2386;42.138;24.746;2023-11-19T10:18:47;2.40;;;2.30;;
4744;SDS011;2386;42.138;24.746;2023-11-19T10:21:15;2.13;;;2.03;;
4744;SDS011;2386;42.138;24.746;2023-11-19T10:23:49;2.00;;;1.90;;
4744;SDS011;2386;42.138;24.746;2023-11-19T10:26:16;1.90;;;1.80;;
4744;SDS011;2386;42.138;24.746;2023-11-19T10:28:42;2.40;;;2.27;;
4744;SDS011;2386;42.138;24.746;2023-11-19T10:31:11;2.50;;;2.40;;
4744;SDS011;2386;42.138;24.746;2023-11-19T10:33:40;2.77;;;2.57;;
4744;SDS011;2386;42.138;24.746;2023-11-19T10:36:07;1.97;;;1.87;;
4744;SDS011;2386;42.138;24.746;2023-11-19T10:38:33;2.37;;;2.23;;
4744;SDS011;2386;42.138;24.746;2023-11-19T10:40:58;2.30;;;2.20;;
4744;SDS011;2386;42.138;24.746;2023-11-19T10:43:24;2.27;;;2.17;;
4744;SDS011;2386;42.138;24.746;2023-11-19T10:45:50;3.27;;;2.70;;
4744;SDS011;2386;42.138;24.746;2023-11-19T10:48:17;2.50;;;2.40;;
4744;SDS011;2386;42.138;24.746;2023-11-19T10:50:43;3.23;;;2.57;;
4744;SDS011;2386;42.138;24.746;2023-11-19T10:53:11;2.10;;;2.00;;
4744;SDS011;2386;42.138;24.746;2023-11-19T10:55:40;2.33;;;2.23;;
4744;SDS011;2386;42.138;24.746;2023-11-19T10:58:07;2.83;;;2.63;;
4744;SDS011;2386;42.138;24.746;2023-11-19T11:03:18;9.70;;;2.40;;
4744;SDS011;2386;42.138;24.746;2023-11-19T11:05:46;2.53;;;2.33;;
4744;SDS011;2386;42.138;24.746;2023-11-19T11:08:13;2.87;;;2.70;;
4744;SDS011;2386;42.138;24.746;2023-11-19T11:10:45;2.10;;;2.00;;
4744;SDS011;2386;42.138;24.746;2023-11-19T11:13:16;2.60;;;2.50;;
4744;SDS011;2386;42.138;24.746;2023-11-19T11:15:44;2.40;;;2.30;;
4744;SDS011;2386;42.138;24.746;2023-11-19T11:18:12;3.00;;;2.70;;
4744;SDS011;2386;42.138;24.746;2023-11-19T11:20:38;2.50;;;2.30;;
4744;SDS011;2386;42.138;24.746;2023-11-19T11:31:19;2.50;;;2.30;;
4744;SDS011;2386;42.138;24.746;2023-11-19T11:36:53;2.07;;;1.97;;
4744;SDS011;2386;42.138;24.746;2023-11-19T11:39:31;2.57;;;2.47;;
4744;SDS011;2386;42.138;24.746;2023-11-19T11:47:26;2.40;;;2.20;;
4744;SDS011;2386;42.138;24.746;2023-11-19T11:50:12;2.30;;;2.20;;
4744;SDS011;2386;42.138;24.746;2023-11-19T11:55:27;2.57;;;2.37;;
4744;SDS011;2386;42.138;24.746;2023-11-19T11:57:54;2.50;;;2.30;;
4744;SDS011;2386;42.138;24.746;2023-11-19T12:02:52;2.40;;;2.30;;
4744;SDS011;2386;42.138;24.746;2023-11-19T12:05:21;2.03;;;1.93;;
4744;SDS011;2386;42.138;24.746;2023-11-19T12:08:04;2.97;;;2.77;;
4744;SDS011;2386;42.138;24.746;2023-11-19T12:10:45;3.13;;;2.30;;
4744;SDS011;2386;42.138;24.746;2023-11-19T12:13:12;2.40;;;1.97;;
4744;SDS011;2386;42.138;24.746;2023-11-19T12:18:28;2.60;;;2.40;;
4744;SDS011;2386;42.138;24.746;2023-11-19T12:20:58;2.90;;;2.70;;
4744;SDS011;2386;42.138;24.746;2023-11-19T12:23:26;2.80;;;2.60;;
4744;SDS011;2386;42.138;24.746;2023-11-19T12:25:54;3.17;;;2.97;;
4744;SDS011;2386;42.138;24.746;2023-11-19T12:28:20;3.13;;;2.93;;
4744;SDS011;2386;42.138;24.746;2023-11-19T12:30:45;3.07;;;2.77;;
4744;SDS011;2386;42.138;24.746;2023-11-19T12:33:12;3.03;;;2.83;;
4744;SDS011;2386;42.138;24.746;2023-11-19T12:35:41;3.67;;;3.37;;
4744;SDS011;2386;42.138;24.746;2023-11-19T12:38:08;3.53;;;3.23;;
4744;SDS011;2386;42.138;24.746;2023-11-19T12:40:43;3.50;;;3.20;;
4744;SDS011;2386;42.138;24.746;2023-11-19T12:43:09;2.83;;;2.63;;
4744;SDS011;2386;42.138;24.746;2023-11-19T12:45:35;3.20;;;3.00;;
4744;SDS011;2386;42.138;24.746;2023-11-19T12:48:07;3.67;;;3.23;;
4744;SDS011;2386;42.138;24.746;2023-11-19T12:50:56;3.17;;;2.97;;
4744;SDS011;2386;42.138;24.746;2023-11-19T12:53:23;3.30;;;3.00;;
4744;SDS011;2386;42.138;24.746;2023-11-19T12:55:50;3.70;;;3.20;;
4744;SDS011;2386;42.138;24.746;2023-11-19T13:03:33;3.67;;;3.37;;
4744;SDS011;2386;42.138;24.746;2023-11-19T13:08:41;5.33;;;3.13;;
4744;SDS011;2386;42.138;24.746;2023-11-19T13:11:15;3.07;;;2.80;;
4744;SDS011;2386;42.138;24.746;2023-11-19T13:13:55;3.57;;;3.27;;
4744;SDS011;2386;42.138;24.746;2023-11-19T13:16:20;3.00;;;2.80;;
4744;SDS011;2386;42.138;24.746;2023-11-19T13:18:46;3.90;;;3.60;;
4744;SDS011;2386;42.138;24.746;2023-11-19T13:21:12;3.40;;;3.20;;
4744;SDS011;2386;42.138;24.746;2023-11-19T13:23:38;3.63;;;3.33;;
4744;SDS011;2386;42.138;24.746;2023-11-19T13:26:03;3.20;;;2.90;;
4744;SDS011;2386;42.138;24.746;2023-11-19T13:28:29;3.23;;;3.03;;
4744;SDS011;2386;42.138;24.746;2023-11-19T13:30:54;3.00;;;2.80;;
4744;SDS011;2386;42.138;24.746;2023-11-19T13:33:20;2.83;;;2.63;;
4744;SDS011;2386;42.138;24.746;2023-11-19T13:35:45;2.80;;;2.70;;
4744;SDS011;2386;42.138;24.746;2023-11-19T13:38:10;2.80;;;2.60;;
4744;SDS011;2386;42.138;24.746;2023-11-19T13:40:36;2.97;;;2.77;;
4744;SDS011;2386;42.138;24.746;2023-11-19T13:43:01;2.90;;;2.60;;
4744;SDS011;2386;42.138;24.746;2023-11-19T13:45:27;4.13;;;3.07;;
4744;SDS011;2386;42.138;24.746;2023-11-19T13:47:52;3.53;;;3.23;;
4744;SDS011;2386;42.138;24.746;2023-11-19T13:50:18;3.07;;;2.87;;
4744;SDS011;2386;42.138;24.746;2023-11-19T13:52:44;3.00;;;2.80;;
4744;SDS011;2386;42.138;24.746;2023-11-19T13:55:11;3.37;;;3.07;;
4744;SDS011;2386;42.138;24.746;2023-11-19T13:57:37;3.40;;;3.20;;
4744;SDS011;2386;42.138;24.746;2023-11-19T14:00:04;3.43;;;3.23;;
4744;SDS011;2386;42.138;24.746;2023-11-19T14:02:48;2.80;;;2.60;;
4744;SDS011;2386;42.138;24.746;2023-11-19T14:05:14;3.60;;;3.30;;
4744;SDS011;2386;42.138;24.746;2023-11-19T14:07:42;3.63;;;3.33;;
4744;SDS011;2386;42.138;24.746;2023-11-19T14:10:08;5.07;;;3.40;;
4744;SDS011;2386;42.138;24.746;2023-11-19T14:12:36;3.77;;;3.47;;
4744;SDS011;2386;42.138;24.746;2023-11-19T14:15:03;3.30;;;3.07;;
4744;SDS011;2386;42.138;24.746;2023-11-19T14:17:30;4.20;;;3.80;;
4744;SDS011;2386;42.138;24.746;2023-11-19T14:19:56;4.43;;;3.93;;
4744;SDS011;2386;42.138;24.746;2023-11-19T14:22:21;4.13;;;3.77;;
4744;SDS011;2386;42.138;24.746;2023-11-19T14:24:47;3.30;;;3.03;;
4744;SDS011;2386;42.138;24.746;2023-11-19T14:27:12;3.20;;;3.00;;
4744;SDS011;2386;42.138;24.746;2023-11-19T14:29:38;4.27;;;3.20;;
4744;SDS011;2386;42.138;24.746;2023-11-19T14:32:04;3.07;;;2.87;;
4744;SDS011;2386;42.138;24.746;2023-11-19T14:34:30;3.10;;;2.90;;
4744;SDS011;2386;42.138;24.746;2023-11-19T14:36:57;3.70;;;3.40;;
4744;SDS011;2386;42.138;24.746;2023-11-19T14:39:23;5.53;;;3.37;;
4744;SDS011;2386;42.138;24.746;2023-11-19T14:41:48;3.70;;;3.40;;
4744;SDS011;2386;42.138;24.746;2023-11-19T14:44:14;4.93;;;4.20;;
4744;SDS011;2386;42.138;24.746;2023-11-19T14:46:40;5.17;;;3.10;;
4744;SDS011;2386;42.138;24.746;2023-11-19T14:49:05;3.33;;;3.03;;
4744;SDS011;2386;42.138;24.746;2023-11-19T14:51:32;3.67;;;3.30;;
4744;SDS011;2386;42.138;24.746;2023-11-19T14:54:00;16.57;;;3.53;;
4744;SDS011;2386;42.138;24.746;2023-11-19T14:56:25;3.53;;;3.23;;
4744;SDS011;2386;42.138;24.746;2023-11-19T14:58:51;4.63;;;3.30;;
4744;SDS011;2386;42.138;24.746;2023-11-19T15:01:16;3.50;;;3.30;;
4744;SDS011;2386;42.138;24.746;2023-11-19T15:03:42;3.57;;;3.33;;
4744;SDS011;2386;42.138;24.746;2023-11-19T15:06:07;3.23;;;2.40;;
4744;SDS011;2386;42.138;24.746;2023-11-19T15:08:33;3.67;;;3.37;;
4744;SDS011;2386;42.138;24.746;2023-11-19T15:10:58;5.20;;;3.00;;
4744;SDS011;2386;42.138;24.746;2023-11-19T15:13:26;2.97;;;2.67;;
4744;SDS011;2386;42.138;24.746;2023-11-19T15:15:52;3.17;;;2.83;;
4744;SDS011;2386;42.138;24.746;2023-11-19T15:18:18;3.03;;;2.83;;
4744;SDS011;2386;42.138;24.746;2023-11-19T15:20:44;3.60;;;3.20;;
4744;SDS011;2386;42.138;24.746;2023-11-19T15:23:12;3.17;;;2.90;;
4744;SDS011;2386;42.138;24.746;2023-11-19T15:25:38;3.53;;;3.27;;
4744;SDS011;2386;42.138;24.746;2023-11-19T15:28:04;3.27;;;2.63;;
4744;SDS011;2386;42.138;24.746;2023-11-19T15:30:29;3.50;;;3.20;;
4744;SDS011;2386;42.138;24.746;2023-11-19T15:32:54;3.60;;;3.30;;
4744;SDS011;2386;42.138;24.746;2023-11-19T15:35:20;3.60;;;3.30;;